sensor_id;sensor_type;location;lat;lon;timestamp;temperature;humidity
67163;DHT22;54092;53.088;8.850;2023-04-03T00:01:58;2.00;99.90
67163;DHT22;54092;53.088;8.850;2023-04-03T00:04:23;1.90;99.90
67163;DHT22;54092;53.088;8.850;2023-04-03T00:06:50;1.90;99.90
67163;DHT22;54092;53.088;8.850;2023-04-03T00:09:15;1.80;99.90
67163;DHT22;54092;53.088;8.850;2023-04-03T00:11:41;1.70;99.90
67163;DHT22;54092;53.088;8.850;2023-04-03T00:14:06;1.70;99.90
67163;DHT22;54092;53.088;8.850;2023-04-03T00:16:31;1.60;99.90
67163;DHT22;54092;53.088;8.850;2023-04-03T00:18:57;1.60;99.90
67163;DHT22;54092;53.088;8.850;2023-04-03T00:21:22;1.60;99.90
67163;DHT22;54092;53.088;8.850;2023-04-03T00:23:48;1.60;99.90
67163;DHT22;54092;53.088;8.850;2023-04-03T00:26:13;1.60;99.90
67163;DHT22;54092;53.088;8.850;2023-04-03T00:28:39;1.50;99.90
67163;DHT22;54092;53.088;8.850;2023-04-03T00:31:05;1.50;99.90
67163;DHT22;54092;53.088;8.850;2023-04-03T00:33:30;1.40;99.90
67163;DHT22;54092;53.088;8.850;2023-04-03T00:35:56;1.40;99.90
67163;DHT22;54092;53.088;8.850;2023-04-03T00:38:21;1.40;99.90
67163;DHT22;54092;53.088;8.850;2023-04-03T00:40:48;1.30;99.90
67163;DHT22;54092;53.088;8.850;2023-04-03T00:43:20;1.30;99.90
67163;DHT22;54092;53.088;8.850;2023-04-03T00:45:48;1.30;99.90
67163;DHT22;54092;53.088;8.850;2023-04-03T00:48:18;1.30;99.90
67163;DHT22;54092;53.088;8.850;2023-04-03T00:50:45;1.30;99.90
67163;DHT22;54092;53.088;8.850;2023-04-03T00:53:16;1.30;99.90
67163;DHT22;54092;53.088;8.850;2023-04-03T00:55:43;1.30;99.90
67163;DHT22;54092;53.088;8.850;2023-04-03T00:58:09;1.20;99.90
67163;DHT22;54092;53.088;8.850;2023-04-03T01:00:38;1.20;99.90
67163;DHT22;54092;53.088;8.850;2023-04-03T01:03:05;1.20;99.90
67163;DHT22;54092;53.088;8.850;2023-04-03T01:05:31;1.10;99.90
67163;DHT22;54092;53.088;8.850;2023-04-03T01:07:57;1.10;99.90
67163;DHT22;54092;53.088;8.850;2023-04-03T01:10:23;1.00;99.90
67163;DHT22;54092;53.088;8.850;2023-04-03T01:12:52;1.10;99.90
67163;DHT22;54092;53.088;8.850;2023-04-03T01:15:23;1.00;99.90
67163;DHT22;54092;53.088;8.850;2023-04-03T01:17:54;1.00;99.90
67163;DHT22;54092;53.088;8.850;2023-04-03T01:25:35;0.90;99.90
67163;DHT22;54092;53.088;8.850;2023-04-03T01:28:02;0.90;99.90
67163;DHT22;54092;53.088;8.850;2023-04-03T01:30:34;0.90;99.90
67163;DHT22;54092;53.088;8.850;2023-04-03T01:33:00;0.90;99.90
67163;DHT22;54092;53.088;8.850;2023-04-03T01:35:26;0.80;99.90
67163;DHT22;54092;53.088;8.850;2023-04-03T01:37:51;0.80;99.90
67163;DHT22;54092;53.088;8.850;2023-04-03T01:40:17;0.80;99.90
67163;DHT22;54092;53.088;8.850;2023-04-03T01:42:43;0.80;99.90
67163;DHT22;54092;53.088;8.850;2023-04-03T01:45:09;0.80;99.90
67163;DHT22;54092;53.088;8.850;2023-04-03T01:47:34;0.70;99.90
67163;DHT22;54092;53.088;8.850;2023-04-03T01:50:00;0.70;99.90
67163;DHT22;54092;53.088;8.850;2023-04-03T01:52:26;0.70;99.90
67163;DHT22;54092;53.088;8.850;2023-04-03T01:54:51;0.70;99.90
67163;DHT22;54092;53.088;8.850;2023-04-03T01:57:17;0.70;99.90
67163;DHT22;54092;53.088;8.850;2023-04-03T01:59:42;0.70;99.90
67163;DHT22;54092;53.088;8.850;2023-04-03T02:02:08;0.70;99.90
67163;DHT22;54092;53.088;8.850;2023-04-03T02:04:33;0.70;99.90
67163;DHT22;54092;53.088;8.850;2023-04-03T02:06:59;0.70;99.90
67163;DHT22;54092;53.088;8.850;2023-04-03T02:09:24;0.70;99.90
67163;DHT22;54092;53.088;8.850;2023-04-03T02:11:51;0.70;99.90
67163;DHT22;54092;53.088;8.850;2023-04-03T02:14:17;0.70;99.90
67163;DHT22;54092;53.088;8.850;2023-04-03T02:16:42;0.60;99.90
67163;DHT22;54092;53.088;8.850;2023-04-03T02:19:08;0.60;99.90
67163;DHT22;54092;53.088;8.850;2023-04-03T02:21:34;0.60;99.90
67163;DHT22;54092;53.088;8.850;2023-04-03T02:23:59;0.50;99.90
67163;DHT22;54092;53.088;8.850;2023-04-03T02:26:25;0.50;99.90
67163;DHT22;54092;53.088;8.850;2023-04-03T02:28:51;0.50;99.90
67163;DHT22;54092;53.088;8.850;2023-04-03T02:31:16;0.50;99.90
67163;DHT22;54092;53.088;8.850;2023-04-03T02:33:42;0.50;99.90
67163;DHT22;54092;53.088;8.850;2023-04-03T02:36:08;0.50;99.90
67163;DHT22;54092;53.088;8.850;2023-04-03T02:38:33;0.40;99.90
67163;DHT22;54092;53.088;8.850;2023-04-03T02:41:02;0.40;99.90
67163;DHT22;54092;53.088;8.850;2023-04-03T02:43:27;0.40;99.90
67163;DHT22;54092;53.088;8.850;2023-04-03T02:45:53;0.40;99.90
67163;DHT22;54092;53.088;8.850;2023-04-03T02:48:18;0.40;99.90
67163;DHT22;54092;53.088;8.850;2023-04-03T02:50:44;0.40;99.90
67163;DHT22;54092;53.088;8.850;2023-04-03T02:53:09;0.40;99.90
67163;DHT22;54092;53.088;8.850;2023-04-03T02:55:35;0.40;99.90
67163;DHT22;54092;53.088;8.850;2023-04-03T02:58:00;0.30;99.90
67163;DHT22;54092;53.088;8.850;2023-04-03T03:00:26;0.40;99.90
67163;DHT22;54092;53.088;8.850;2023-04-03T03:02:51;0.30;99.90
67163;DHT22;54092;53.088;8.850;2023-04-03T03:05:17;0.30;99.90
67163;DHT22;54092;53.088;8.850;2023-04-03T03:07:42;0.30;99.90
67163;DHT22;54092;53.088;8.850;2023-04-03T03:10:08;0.30;99.90
67163;DHT22;54092;53.088;8.850;2023-04-03T03:12:34;0.30;99.90
67163;DHT22;54092;53.088;8.850;2023-04-03T03:14:59;0.30;99.90
67163;DHT22;54092;53.088;8.850;2023-04-03T03:17:25;0.30;99.90
67163;DHT22;54092;53.088;8.850;2023-04-03T03:19:50;0.30;99.90
67163;DHT22;54092;53.088;8.850;2023-04-03T03:22:16;0.30;99.90
67163;DHT22;54092;53.088;8.850;2023-04-03T03:24:42;0.20;99.90
67163;DHT22;54092;53.088;8.850;2023-04-03T03:27:07;0.20;99.90
67163;DHT22;54092;53.088;8.850;2023-04-03T03:29:33;0.20;99.90
67163;DHT22;54092;53.088;8.850;2023-04-03T03:31:58;0.20;99.90
67163;DHT22;54092;53.088;8.850;2023-04-03T03:34:23;0.20;99.90
67163;DHT22;54092;53.088;8.850;2023-04-03T03:36:49;0.20;99.90
67163;DHT22;54092;53.088;8.850;2023-04-03T03:39:15;0.20;99.90
67163;DHT22;54092;53.088;8.850;2023-04-03T03:41:40;0.20;99.90
67163;DHT22;54092;53.088;8.850;2023-04-03T03:44:06;0.20;99.90
67163;DHT22;54092;53.088;8.850;2023-04-03T03:46:31;0.20;99.90
67163;DHT22;54092;53.088;8.850;2023-04-03T03:48:57;0.20;99.90
67163;DHT22;54092;53.088;8.850;2023-04-03T03:51:23;0.10;99.90
67163;DHT22;54092;53.088;8.850;2023-04-03T03:53:48;0.10;99.90
67163;DHT22;54092;53.088;8.850;2023-04-03T03:56:13;0.10;99.90
67163;DHT22;54092;53.088;8.850;2023-04-03T03:58:39;0.10;99.90
67163;DHT22;54092;53.088;8.850;2023-04-03T04:01:06;0.10;99.90
67163;DHT22;54092;53.088;8.850;2023-04-03T04:03:32;0.10;99.90
67163;DHT22;54092;53.088;8.850;2023-04-03T04:05:58;0.00;99.90
67163;DHT22;54092;53.088;8.850;2023-04-03T04:08:23;0.00;99.90
67163;DHT22;54092;53.088;8.850;2023-04-03T04:10:49;0.00;99.90
67163;DHT22;54092;53.088;8.850;2023-04-03T04:13:15;-0.10;99.90
67163;DHT22;54092;53.088;8.850;2023-04-03T04:15:40;-0.10;99.90
67163;DHT22;54092;53.088;8.850;2023-04-03T04:18:06;-0.10;99.90
67163;DHT22;54092;53.088;8.850;2023-04-03T04:20:32;-0.10;99.90
67163;DHT22;54092;53.088;8.850;2023-04-03T04:22:57;-0.10;99.90
67163;DHT22;54092;53.088;8.850;2023-04-03T04:25:22;-0.10;99.90
67163;DHT22;54092;53.088;8.850;2023-04-03T04:27:48;-0.20;99.90
67163;DHT22;54092;53.088;8.850;2023-04-03T04:30:14;-0.10;99.90
67163;DHT22;54092;53.088;8.850;2023-04-03T04:32:39;-0.10;99.90
67163;DHT22;54092;53.088;8.850;2023-04-03T04:35:05;-0.10;99.90
67163;DHT22;54092;53.088;8.850;2023-04-03T04:37:31;-0.10;99.90
67163;DHT22;54092;53.088;8.850;2023-04-03T04:39:56;-0.10;99.90
67163;DHT22;54092;53.088;8.850;2023-04-03T04:42:22;0.00;99.90
67163;DHT22;54092;53.088;8.850;2023-04-03T04:44:47;0.10;99.90
67163;DHT22;54092;53.088;8.850;2023-04-03T04:47:13;0.10;99.90
67163;DHT22;54092;53.088;8.850;2023-04-03T04:49:38;0.10;99.90
67163;DHT22;54092;53.088;8.850;2023-04-03T04:52:04;0.10;99.90
67163;DHT22;54092;53.088;8.850;2023-04-03T04:54:30;0.10;99.90
67163;DHT22;54092;53.088;8.850;2023-04-03T04:56:55;0.10;99.90
67163;DHT22;54092;53.088;8.850;2023-04-03T04:59:21;0.10;99.90
67163;DHT22;54092;53.088;8.850;2023-04-03T05:01:46;0.10;99.90
67163;DHT22;54092;53.088;8.850;2023-04-03T05:04:12;0.10;99.90
67163;DHT22;54092;53.088;8.850;2023-04-03T05:06:38;0.20;99.90
67163;DHT22;54092;53.088;8.850;2023-04-03T05:09:04;0.20;99.90
67163;DHT22;54092;53.088;8.850;2023-04-03T05:11:30;0.20;99.90
67163;DHT22;54092;53.088;8.850;2023-04-03T05:13:56;0.20;99.90
67163;DHT22;54092;53.088;8.850;2023-04-03T05:16:21;0.20;99.90
67163;DHT22;54092;53.088;8.850;2023-04-03T05:18:47;0.20;99.90
67163;DHT22;54092;53.088;8.850;2023-04-03T05:21:12;0.20;99.90
67163;DHT22;54092;53.088;8.850;2023-04-03T05:23:38;0.30;99.90
67163;DHT22;54092;53.088;8.850;2023-04-03T05:26:03;0.30;99.90
67163;DHT22;54092;53.088;8.850;2023-04-03T05:28:29;0.20;99.90
67163;DHT22;54092;53.088;8.850;2023-04-03T05:30:56;0.30;99.90
67163;DHT22;54092;53.088;8.850;2023-04-03T05:33:22;0.30;99.90
67163;DHT22;54092;53.088;8.850;2023-04-03T05:35:48;0.30;99.90
67163;DHT22;54092;53.088;8.850;2023-04-03T05:38:13;0.30;99.90
67163;DHT22;54092;53.088;8.850;2023-04-03T05:40:39;0.40;99.90
67163;DHT22;54092;53.088;8.850;2023-04-03T05:43:04;0.40;99.90
67163;DHT22;54092;53.088;8.850;2023-04-03T05:45:30;0.40;99.90
67163;DHT22;54092;53.088;8.850;2023-04-03T05:47:56;0.50;99.90
67163;DHT22;54092;53.088;8.850;2023-04-03T05:50:21;0.50;99.90
67163;DHT22;54092;53.088;8.850;2023-04-03T05:52:49;0.60;99.90
67163;DHT22;54092;53.088;8.850;2023-04-03T05:55:16;0.60;99.90
67163;DHT22;54092;53.088;8.850;2023-04-03T05:57:41;0.70;99.90
67163;DHT22;54092;53.088;8.850;2023-04-03T06:00:08;0.80;99.90
67163;DHT22;54092;53.088;8.850;2023-04-03T06:02:35;0.90;99.90
67163;DHT22;54092;53.088;8.850;2023-04-03T06:05:01;0.90;99.90
67163;DHT22;54092;53.088;8.850;2023-04-03T06:07:27;1.00;99.90
67163;DHT22;54092;53.088;8.850;2023-04-03T06:09:55;1.10;99.90
67163;DHT22;54092;53.088;8.850;2023-04-03T06:12:22;1.20;99.90
67163;DHT22;54092;53.088;8.850;2023-04-03T06:14:48;1.30;99.90
67163;DHT22;54092;53.088;8.850;2023-04-03T06:17:15;1.40;99.90
67163;DHT22;54092;53.088;8.850;2023-04-03T06:19:41;1.50;99.90
67163;DHT22;54092;53.088;8.850;2023-04-03T06:22:06;1.60;99.90
67163;DHT22;54092;53.088;8.850;2023-04-03T06:24:32;1.70;99.90
67163;DHT22;54092;53.088;8.850;2023-04-03T06:26:58;1.80;99.90
67163;DHT22;54092;53.088;8.850;2023-04-03T06:29:24;1.90;99.90
67163;DHT22;54092;53.088;8.850;2023-04-03T06:31:50;2.00;99.90
67163;DHT22;54092;53.088;8.850;2023-04-03T06:34:16;2.10;99.90
67163;DHT22;54092;53.088;8.850;2023-04-03T06:36:42;2.20;99.90
67163;DHT22;54092;53.088;8.850;2023-04-03T06:39:16;2.30;99.90
67163;DHT22;54092;53.088;8.850;2023-04-03T06:41:43;2.40;99.90
67163;DHT22;54092;53.088;8.850;2023-04-03T06:44:08;2.50;99.90
67163;DHT22;54092;53.088;8.850;2023-04-03T06:46:37;2.60;99.90
67163;DHT22;54092;53.088;8.850;2023-04-03T06:49:03;2.70;99.90
67163;DHT22;54092;53.088;8.850;2023-04-03T06:51:29;2.80;99.90
67163;DHT22;54092;53.088;8.850;2023-04-03T06:53:57;2.90;99.90
67163;DHT22;54092;53.088;8.850;2023-04-03T06:56:24;3.00;99.90
67163;DHT22;54092;53.088;8.850;2023-04-03T06:58:50;3.20;99.90
67163;DHT22;54092;53.088;8.850;2023-04-03T07:01:17;3.30;99.90
67163;DHT22;54092;53.088;8.850;2023-04-03T07:03:46;3.40;99.90
67163;DHT22;54092;53.088;8.850;2023-04-03T07:06:13;3.40;99.90
67163;DHT22;54092;53.088;8.850;2023-04-03T07:08:39;3.50;99.90
67163;DHT22;54092;53.088;8.850;2023-04-03T07:11:05;3.60;99.90
67163;DHT22;54092;53.088;8.850;2023-04-03T07:13:31;3.80;99.90
67163;DHT22;54092;53.088;8.850;2023-04-03T07:15:56;3.80;99.90
67163;DHT22;54092;53.088;8.850;2023-04-03T07:18:22;3.90;99.90
67163;DHT22;54092;53.088;8.850;2023-04-03T07:20:48;4.00;99.90
67163;DHT22;54092;53.088;8.850;2023-04-03T07:23:14;4.00;99.90
67163;DHT22;54092;53.088;8.850;2023-04-03T07:25:47;4.10;99.90
67163;DHT22;54092;53.088;8.850;2023-04-03T07:28:13;4.20;99.90
67163;DHT22;54092;53.088;8.850;2023-04-03T07:30:44;4.30;99.90
67163;DHT22;54092;53.088;8.850;2023-04-03T07:33:10;4.40;99.90
67163;DHT22;54092;53.088;8.850;2023-04-03T07:35:37;4.50;99.90
67163;DHT22;54092;53.088;8.850;2023-04-03T07:38:02;4.60;99.90
67163;DHT22;54092;53.088;8.850;2023-04-03T07:40:28;4.70;99.90
67163;DHT22;54092;53.088;8.850;2023-04-03T07:42:53;4.80;99.90
67163;DHT22;54092;53.088;8.850;2023-04-03T07:45:20;4.90;99.90
67163;DHT22;54092;53.088;8.850;2023-04-03T07:47:45;5.00;99.90
67163;DHT22;54092;53.088;8.850;2023-04-03T07:50:11;5.10;99.90
67163;DHT22;54092;53.088;8.850;2023-04-03T07:52:37;5.30;99.90
67163;DHT22;54092;53.088;8.850;2023-04-03T07:55:02;5.30;99.90
67163;DHT22;54092;53.088;8.850;2023-04-03T07:57:28;5.40;99.90
67163;DHT22;54092;53.088;8.850;2023-04-03T07:59:53;5.40;99.90
67163;DHT22;54092;53.088;8.850;2023-04-03T08:02:19;5.50;99.90
67163;DHT22;54092;53.088;8.850;2023-04-03T08:04:45;5.60;99.90
67163;DHT22;54092;53.088;8.850;2023-04-03T08:07:10;5.70;99.90
67163;DHT22;54092;53.088;8.850;2023-04-03T08:09:36;5.90;99.90
67163;DHT22;54092;53.088;8.850;2023-04-03T08:12:01;5.90;99.90
67163;DHT22;54092;53.088;8.850;2023-04-03T08:14:27;6.00;99.90
67163;DHT22;54092;53.088;8.850;2023-04-03T08:16:55;5.90;99.90
67163;DHT22;54092;53.088;8.850;2023-04-03T08:19:21;5.90;99.90
67163;DHT22;54092;53.088;8.850;2023-04-03T08:21:46;6.00;99.90
67163;DHT22;54092;53.088;8.850;2023-04-03T08:24:12;6.30;99.90
67163;DHT22;54092;53.088;8.850;2023-04-03T08:26:37;6.40;99.90
67163;DHT22;54092;53.088;8.850;2023-04-03T08:29:03;6.40;99.90
67163;DHT22;54092;53.088;8.850;2023-04-03T08:31:29;6.40;99.90
67163;DHT22;54092;53.088;8.850;2023-04-03T08:33:56;6.40;99.90
67163;DHT22;54092;53.088;8.850;2023-04-03T08:36:24;6.60;99.90
67163;DHT22;54092;53.088;8.850;2023-04-03T08:38:52;6.80;99.90
67163;DHT22;54092;53.088;8.850;2023-04-03T08:41:41;7.10;99.90
67163;DHT22;54092;53.088;8.850;2023-04-03T08:44:18;7.20;99.90
67163;DHT22;54092;53.088;8.850;2023-04-03T08:49:32;8.20;99.90
67163;DHT22;54092;53.088;8.850;2023-04-03T08:52:02;9.00;99.90
67163;DHT22;54092;53.088;8.850;2023-04-03T08:54:52;9.80;99.90
67163;DHT22;54092;53.088;8.850;2023-04-03T08:57:28;10.20;99.90
67163;DHT22;54092;53.088;8.850;2023-04-03T08:59:56;10.70;99.90
67163;DHT22;54092;53.088;8.850;2023-04-03T09:02:34;11.50;99.90
67163;DHT22;54092;53.088;8.850;2023-04-03T09:05:12;11.90;99.90
67163;DHT22;54092;53.088;8.850;2023-04-03T09:07:43;12.30;99.90
67163;DHT22;54092;53.088;8.850;2023-04-03T09:10:12;12.70;99.90
67163;DHT22;54092;53.088;8.850;2023-04-03T09:12:44;13.10;99.90
67163;DHT22;54092;53.088;8.850;2023-04-03T09:20:21;13.50;99.90
67163;DHT22;54092;53.088;8.850;2023-04-03T09:22:51;13.70;99.90
67163;DHT22;54092;53.088;8.850;2023-04-03T09:25:31;13.90;99.90
67163;DHT22;54092;53.088;8.850;2023-04-03T09:27:59;14.00;99.90
67163;DHT22;54092;53.088;8.850;2023-04-03T09:30:26;14.00;99.90
67163;DHT22;54092;53.088;8.850;2023-04-03T09:32:53;14.20;99.90
67163;DHT22;54092;53.088;8.850;2023-04-03T09:35:34;14.10;99.90
67163;DHT22;54092;53.088;8.850;2023-04-03T09:38:14;14.30;99.90
67163;DHT22;54092;53.088;8.850;2023-04-03T09:40:42;14.70;99.90
67163;DHT22;54092;53.088;8.850;2023-04-03T09:43:24;14.70;99.90
67163;DHT22;54092;53.088;8.850;2023-04-03T09:45:51;15.40;99.90
67163;DHT22;54092;53.088;8.850;2023-04-03T09:48:20;15.40;99.90
67163;DHT22;54092;53.088;8.850;2023-04-03T09:50:53;15.20;99.90
67163;DHT22;54092;53.088;8.850;2023-04-03T09:53:34;15.90;99.90
67163;DHT22;54092;53.088;8.850;2023-04-03T09:56:02;16.10;99.90
67163;DHT22;54092;53.088;8.850;2023-04-03T09:58:36;16.40;99.90
67163;DHT22;54092;53.088;8.850;2023-04-03T10:01:02;16.50;99.90
67163;DHT22;54092;53.088;8.850;2023-04-03T10:03:36;16.50;99.90
67163;DHT22;54092;53.088;8.850;2023-04-03T10:06:03;16.00;99.90
67163;DHT22;54092;53.088;8.850;2023-04-03T10:08:34;16.10;99.90
67163;DHT22;54092;53.088;8.850;2023-04-03T10:11:16;16.40;99.90
67163;DHT22;54092;53.088;8.850;2023-04-03T10:13:58;16.10;99.90
67163;DHT22;54092;53.088;8.850;2023-04-03T10:16:47;16.20;99.90
67163;DHT22;54092;53.088;8.850;2023-04-03T10:19:32;16.80;99.90
67163;DHT22;54092;53.088;8.850;2023-04-03T10:27:44;14.90;99.90
67163;DHT22;54092;53.088;8.850;2023-04-03T10:33:05;15.30;99.90
67163;DHT22;54092;53.088;8.850;2023-04-03T10:38:33;16.70;99.90
67163;DHT22;54092;53.088;8.850;2023-04-03T10:41:29;16.70;99.90
67163;DHT22;54092;53.088;8.850;2023-04-03T10:46:38;16.50;99.90
67163;DHT22;54092;53.088;8.850;2023-04-03T10:49:22;16.60;99.90
67163;DHT22;54092;53.088;8.850;2023-04-03T10:52:22;17.10;99.90
67163;DHT22;54092;53.088;8.850;2023-04-03T10:57:30;16.30;99.90
67163;DHT22;54092;53.088;8.850;2023-04-03T10:59:59;16.20;99.90
67163;DHT22;54092;53.088;8.850;2023-04-03T11:02:33;16.50;99.90
67163;DHT22;54092;53.088;8.850;2023-04-03T11:05:07;15.30;99.90
67163;DHT22;54092;53.088;8.850;2023-04-03T11:07:42;14.90;99.90
67163;DHT22;54092;53.088;8.850;2023-04-03T11:12:43;16.70;99.90
67163;DHT22;54092;53.088;8.850;2023-04-03T11:15:17;16.50;99.90
67163;DHT22;54092;53.088;8.850;2023-04-03T11:17:49;16.10;99.90
67163;DHT22;54092;53.088;8.850;2023-04-03T11:20:28;15.60;99.90
67163;DHT22;54092;53.088;8.850;2023-04-03T11:23:02;16.30;99.90
67163;DHT22;54092;53.088;8.850;2023-04-03T11:25:30;16.30;99.90
67163;DHT22;54092;53.088;8.850;2023-04-03T11:27:59;16.90;99.90
67163;DHT22;54092;53.088;8.850;2023-04-03T11:33:34;16.60;99.90
67163;DHT22;54092;53.088;8.850;2023-04-03T11:38:35;17.10;99.90
67163;DHT22;54092;53.088;8.850;2023-04-03T11:41:03;17.70;99.90
67163;DHT22;54092;53.088;8.850;2023-04-03T11:43:31;18.00;99.90
67163;DHT22;54092;53.088;8.850;2023-04-03T11:46:03;17.80;99.90
67163;DHT22;54092;53.088;8.850;2023-04-03T11:50:59;17.30;99.90
67163;DHT22;54092;53.088;8.850;2023-04-03T11:53:26;17.30;99.90
67163;DHT22;54092;53.088;8.850;2023-04-03T11:58:31;16.30;99.90
67163;DHT22;54092;53.088;8.850;2023-04-03T12:01:08;16.20;99.90
67163;DHT22;54092;53.088;8.850;2023-04-03T12:04:05;16.50;99.90
67163;DHT22;54092;53.088;8.850;2023-04-03T12:08:59;16.40;99.90
67163;DHT22;54092;53.088;8.850;2023-04-03T12:11:31;16.20;99.90
67163;DHT22;54092;53.088;8.850;2023-04-03T12:16:45;15.50;99.90
67163;DHT22;54092;53.088;8.850;2023-04-03T12:37:51;13.00;99.90
67163;DHT22;54092;53.088;8.850;2023-04-03T12:46:19;12.40;99.90
67163;DHT22;54092;53.088;8.850;2023-04-03T12:48:51;13.30;99.90
67163;DHT22;54092;53.088;8.850;2023-04-03T12:51:22;13.80;99.90
67163;DHT22;54092;53.088;8.850;2023-04-03T12:53:54;13.60;99.90
67163;DHT22;54092;53.088;8.850;2023-04-03T12:56:31;14.30;99.90
67163;DHT22;54092;53.088;8.850;2023-04-03T13:01:59;14.30;99.90
67163;DHT22;54092;53.088;8.850;2023-04-03T13:04:27;13.70;99.90
67163;DHT22;54092;53.088;8.850;2023-04-03T13:06:53;12.80;99.90
67163;DHT22;54092;53.088;8.850;2023-04-03T13:09:24;12.70;99.90
67163;DHT22;54092;53.088;8.850;2023-04-03T13:14:22;14.10;99.90
67163;DHT22;54092;53.088;8.850;2023-04-03T13:17:02;14.20;99.90
67163;DHT22;54092;53.088;8.850;2023-04-03T13:19:29;14.10;99.90
67163;DHT22;54092;53.088;8.850;2023-04-03T13:22:07;13.90;99.90
67163;DHT22;54092;53.088;8.850;2023-04-03T13:24:37;13.70;99.90
67163;DHT22;54092;53.088;8.850;2023-04-03T13:27:03;13.00;99.90
67163;DHT22;54092;53.088;8.850;2023-04-03T13:29:32;12.20;99.90
67163;DHT22;54092;53.088;8.850;2023-04-03T13:32:00;11.50;99.90
67163;DHT22;54092;53.088;8.850;2023-04-03T13:34:29;11.30;99.90
67163;DHT22;54092;53.088;8.850;2023-04-03T13:36:59;12.00;99.90
67163;DHT22;54092;53.088;8.850;2023-04-03T13:39:30;13.60;99.90
67163;DHT22;54092;53.088;8.850;2023-04-03T13:41:59;14.50;99.90
67163;DHT22;54092;53.088;8.850;2023-04-03T13:44:36;15.10;99.90
67163;DHT22;54092;53.088;8.850;2023-04-03T13:47:15;14.60;99.90
67163;DHT22;54092;53.088;8.850;2023-04-03T13:52:31;13.60;99.90
67163;DHT22;54092;53.088;8.850;2023-04-03T13:55:15;13.40;99.90
67163;DHT22;54092;53.088;8.850;2023-04-03T14:00:45;12.10;99.90
67163;DHT22;54092;53.088;8.850;2023-04-03T14:06:27;11.50;99.90
67163;DHT22;54092;53.088;8.850;2023-04-03T14:08:54;12.10;99.90
67163;DHT22;54092;53.088;8.850;2023-04-03T14:11:28;12.20;99.90
67163;DHT22;54092;53.088;8.850;2023-04-03T14:13:56;12.10;99.90
67163;DHT22;54092;53.088;8.850;2023-04-03T14:16:26;12.10;99.90
67163;DHT22;54092;53.088;8.850;2023-04-03T14:18:53;12.50;99.90
67163;DHT22;54092;53.088;8.850;2023-04-03T14:21:20;12.90;99.90
67163;DHT22;54092;53.088;8.850;2023-04-03T14:23:47;12.90;99.90
67163;DHT22;54092;53.088;8.850;2023-04-03T14:26:21;13.20;99.90
67163;DHT22;54092;53.088;8.850;2023-04-03T14:28:52;13.40;99.90
67163;DHT22;54092;53.088;8.850;2023-04-03T14:31:20;13.30;99.90
67163;DHT22;54092;53.088;8.850;2023-04-03T14:33:47;13.50;99.90
67163;DHT22;54092;53.088;8.850;2023-04-03T14:36:31;13.00;99.90
67163;DHT22;54092;53.088;8.850;2023-04-03T14:38:57;12.00;99.90
67163;DHT22;54092;53.088;8.850;2023-04-03T14:41:25;11.00;99.90
67163;DHT22;54092;53.088;8.850;2023-04-03T14:43:51;10.50;99.90
67163;DHT22;54092;53.088;8.850;2023-04-03T14:46:20;10.50;99.90
67163;DHT22;54092;53.088;8.850;2023-04-03T14:48:46;10.70;99.90
67163;DHT22;54092;53.088;8.850;2023-04-03T14:51:13;11.40;99.90
67163;DHT22;54092;53.088;8.850;2023-04-03T14:53:40;12.00;99.90
67163;DHT22;54092;53.088;8.850;2023-04-03T14:56:17;12.30;99.90
67163;DHT22;54092;53.088;8.850;2023-04-03T14:58:43;12.30;99.90
67163;DHT22;54092;53.088;8.850;2023-04-03T15:01:10;11.80;99.90
67163;DHT22;54092;53.088;8.850;2023-04-03T15:03:37;11.50;99.90
67163;DHT22;54092;53.088;8.850;2023-04-03T15:06:03;11.30;99.90
67163;DHT22;54092;53.088;8.850;2023-04-03T15:08:29;11.40;99.90
67163;DHT22;54092;53.088;8.850;2023-04-03T15:10:55;11.30;99.90
67163;DHT22;54092;53.088;8.850;2023-04-03T15:13:22;10.80;99.90
67163;DHT22;54092;53.088;8.850;2023-04-03T15:15:48;10.40;99.90
67163;DHT22;54092;53.088;8.850;2023-04-03T15:18:25;10.20;99.90
67163;DHT22;54092;53.088;8.850;2023-04-03T15:20:52;10.30;99.90
67163;DHT22;54092;53.088;8.850;2023-04-03T15:23:18;10.50;99.90
67163;DHT22;54092;53.088;8.850;2023-04-03T15:25:45;10.80;99.90
67163;DHT22;54092;53.088;8.850;2023-04-03T15:28:33;11.10;99.90
67163;DHT22;54092;53.088;8.850;2023-04-03T15:31:00;11.40;99.90
67163;DHT22;54092;53.088;8.850;2023-04-03T15:33:27;11.60;99.90
67163;DHT22;54092;53.088;8.850;2023-04-03T15:35:52;11.20;99.90
67163;DHT22;54092;53.088;8.850;2023-04-03T15:38:18;10.80;99.90
67163;DHT22;54092;53.088;8.850;2023-04-03T15:40:44;10.70;99.90
67163;DHT22;54092;53.088;8.850;2023-04-03T15:43:12;10.50;99.90
67163;DHT22;54092;53.088;8.850;2023-04-03T15:45:38;10.20;99.90
67163;DHT22;54092;53.088;8.850;2023-04-03T15:48:04;11.50;99.90
67163;DHT22;54092;53.088;8.850;2023-04-03T15:50:31;12.50;99.90
67163;DHT22;54092;53.088;8.850;2023-04-03T15:52:57;13.00;99.90
67163;DHT22;54092;53.088;8.850;2023-04-03T15:55:27;13.10;99.90
67163;DHT22;54092;53.088;8.850;2023-04-03T15:57:53;12.70;99.90
67163;DHT22;54092;53.088;8.850;2023-04-03T16:00:20;11.70;99.90
67163;DHT22;54092;53.088;8.850;2023-04-03T16:02:46;11.20;99.90
67163;DHT22;54092;53.088;8.850;2023-04-03T16:05:14;11.10;99.90
67163;DHT22;54092;53.088;8.850;2023-04-03T16:07:41;10.80;99.90
67163;DHT22;54092;53.088;8.850;2023-04-03T16:10:08;10.60;99.90
67163;DHT22;54092;53.088;8.850;2023-04-03T16:12:35;10.70;99.90
67163;DHT22;54092;53.088;8.850;2023-04-03T16:15:00;10.70;99.90
67163;DHT22;54092;53.088;8.850;2023-04-03T16:17:27;10.70;99.90
67163;DHT22;54092;53.088;8.850;2023-04-03T16:19:54;10.40;99.90
67163;DHT22;54092;53.088;8.850;2023-04-03T16:22:21;10.00;99.90
67163;DHT22;54092;53.088;8.850;2023-04-03T16:24:46;10.00;99.90
67163;DHT22;54092;53.088;8.850;2023-04-03T16:27:12;9.90;99.90
67163;DHT22;54092;53.088;8.850;2023-04-03T16:29:38;9.70;99.90
67163;DHT22;54092;53.088;8.850;2023-04-03T16:32:03;9.60;99.90
67163;DHT22;54092;53.088;8.850;2023-04-03T16:34:29;9.50;99.90
67163;DHT22;54092;53.088;8.850;2023-04-03T16:36:58;9.50;99.90
67163;DHT22;54092;53.088;8.850;2023-04-03T16:39:23;9.50;99.90
67163;DHT22;54092;53.088;8.850;2023-04-03T16:41:49;9.60;99.90
67163;DHT22;54092;53.088;8.850;2023-04-03T16:44:14;9.60;99.90
67163;DHT22;54092;53.088;8.850;2023-04-03T16:46:40;9.60;99.90
67163;DHT22;54092;53.088;8.850;2023-04-03T16:49:05;9.70;99.90
67163;DHT22;54092;53.088;8.850;2023-04-03T16:51:31;9.60;99.90
67163;DHT22;54092;53.088;8.850;2023-04-03T16:53:57;9.60;99.90
67163;DHT22;54092;53.088;8.850;2023-04-03T16:56:24;9.60;99.90
67163;DHT22;54092;53.088;8.850;2023-04-03T16:58:50;9.50;99.90
67163;DHT22;54092;53.088;8.850;2023-04-03T17:01:18;9.40;99.90
67163;DHT22;54092;53.088;8.850;2023-04-03T17:03:44;9.30;99.90
67163;DHT22;54092;53.088;8.850;2023-04-03T17:06:11;9.30;99.90
67163;DHT22;54092;53.088;8.850;2023-04-03T17:08:42;9.20;99.90
67163;DHT22;54092;53.088;8.850;2023-04-03T17:11:08;9.30;99.90
67163;DHT22;54092;53.088;8.850;2023-04-03T17:13:34;9.40;99.90